sensor_id;sensor_type;location;lat;lon;timestamp;pressure;altitude;pressure_sealevel;temperature;humidity
64551;BME280;50945;44.472;-123.352;2022-10-12T00:00:41;100694.38;;;20.79;43.79
64551;BME280;50945;44.472;-123.352;2022-10-12T00:03:07;100694.59;;;20.77;47.70
64551;BME280;50945;44.472;-123.352;2022-10-12T00:05:33;100685.91;;;20.74;47.99
64551;BME280;50945;44.472;-123.352;2022-10-12T00:08:00;100682.78;;;20.70;47.96
64551;BME280;50945;44.472;-123.352;2022-10-12T00:10:26;100679.91;;;20.65;47.76
64551;BME280;50945;44.472;-123.352;2022-10-12T00:12:52;100684.94;;;20.56;44.28
64551;BME280;50945;44.472;-123.352;2022-10-12T00:15:18;100681.94;;;20.58;48.33
64551;BME280;50945;44.472;-123.352;2022-10-12T00:17:44;100687.97;;;20.55;48.28
64551;BME280;50945;44.472;-123.352;2022-10-12T00:20:11;100687.13;;;20.42;43.05
64551;BME280;50945;44.472;-123.352;2022-10-12T00:22:37;100683.75;;;20.40;48.59
64551;BME280;50945;44.472;-123.352;2022-10-12T00:25:03;100685.69;;;20.28;43.29
64551;BME280;50945;44.472;-123.352;2022-10-12T00:27:30;100675.91;;;20.25;48.52
64551;BME280;50945;44.472;-123.352;2022-10-12T00:29:56;100687.25;;;20.24;48.50
64551;BME280;50945;44.472;-123.352;2022-10-12T00:32:22;100682.19;;;20.21;48.13
64551;BME280;50945;44.472;-123.352;2022-10-12T00:34:49;100678.19;;;20.17;47.97
64551;BME280;50945;44.472;-123.352;2022-10-12T00:37:15;100675.06;;;20.13;47.91
64551;BME280;50945;44.472;-123.352;2022-10-12T00:39:42;100676.38;;;20.10;48.07
64551;BME280;50945;44.472;-123.352;2022-10-12T00:42:10;100667.91;;;20.05;47.83
64551;BME280;50945;44.472;-123.352;2022-10-12T00:44:44;100680.00;;;19.99;47.82
64551;BME280;50945;44.472;-123.352;2022-10-12T00:52:55;100669.59;;;19.83;48.01
64551;BME280;50945;44.472;-123.352;2022-10-12T00:55:23;100676.09;;;19.77;47.90
64551;BME280;50945;44.472;-123.352;2022-10-12T00:57:52;100674.25;;;19.70;48.08
64551;BME280;50945;44.472;-123.352;2022-10-12T01:00:21;100671.56;;;19.64;48.03
64551;BME280;50945;44.472;-123.352;2022-10-12T01:02:50;100675.28;;;19.57;47.88
64551;BME280;50945;44.472;-123.352;2022-10-12T01:05:17;100675.41;;;19.51;48.04
64551;BME280;50945;44.472;-123.352;2022-10-12T01:07:44;100680.56;;;19.47;48.20
64551;BME280;50945;44.472;-123.352;2022-10-12T01:10:12;100683.44;;;19.41;47.86
64551;BME280;50945;44.472;-123.352;2022-10-12T01:12:41;100677.97;;;19.34;48.08
64551;BME280;50945;44.472;-123.352;2022-10-12T01:15:09;100683.38;;;19.29;48.23
64551;BME280;50945;44.472;-123.352;2022-10-12T01:17:41;100676.25;;;19.21;48.08
64551;BME280;50945;44.472;-123.352;2022-10-12T01:34:08;100695.63;;;18.47;49.73
64551;BME280;50945;44.472;-123.352;2022-10-12T01:36:48;100695.56;;;18.35;49.14
64551;BME280;50945;44.472;-123.352;2022-10-12T01:39:33;100693.72;;;18.22;48.88
64551;BME280;50945;44.472;-123.352;2022-10-12T01:42:07;100700.41;;;18.15;49.97
64551;BME280;50945;44.472;-123.352;2022-10-12T01:44:34;100692.00;;;18.03;50.44
64551;BME280;50945;44.472;-123.352;2022-10-12T01:47:00;100699.31;;;17.91;50.97
64551;BME280;50945;44.472;-123.352;2022-10-12T01:49:27;100707.34;;;17.67;50.10
64551;BME280;50945;44.472;-123.352;2022-10-12T01:57:21;100715.28;;;17.18;52.01
64551;BME280;50945;44.472;-123.352;2022-10-12T02:00:03;100718.72;;;17.07;52.56
64551;BME280;50945;44.472;-123.352;2022-10-12T02:02:53;100717.72;;;16.95;51.90
64551;BME280;50945;44.472;-123.352;2022-10-12T02:05:43;100714.34;;;16.86;52.59
64551;BME280;50945;44.472;-123.352;2022-10-12T02:13:19;100733.47;;;16.67;52.90
64551;BME280;50945;44.472;-123.352;2022-10-12T02:15:48;100725.41;;;16.59;53.41
64551;BME280;50945;44.472;-123.352;2022-10-12T02:18:17;100722.25;;;16.56;53.42
64551;BME280;50945;44.472;-123.352;2022-10-12T02:20:46;100727.34;;;16.52;53.22
64551;BME280;50945;44.472;-123.352;2022-10-12T02:23:17;100727.81;;;16.49;53.32
64551;BME280;50945;44.472;-123.352;2022-10-12T02:25:45;100729.28;;;16.45;53.43
64551;BME280;50945;44.472;-123.352;2022-10-12T02:28:16;100736.09;;;16.42;53.75
64551;BME280;50945;44.472;-123.352;2022-10-12T02:30:57;100737.38;;;16.33;54.05
64551;BME280;50945;44.472;-123.352;2022-10-12T02:33:45;100745.44;;;16.21;54.19
64551;BME280;50945;44.472;-123.352;2022-10-12T02:39:11;100745.63;;;15.93;53.78
64551;BME280;50945;44.472;-123.352;2022-10-12T02:41:46;100749.25;;;15.87;54.34
64551;BME280;50945;44.472;-123.352;2022-10-12T02:44:22;100744.75;;;15.79;55.01
64551;BME280;50945;44.472;-123.352;2022-10-12T02:46:51;100748.53;;;15.71;54.47
64551;BME280;50945;44.472;-123.352;2022-10-12T02:49:20;100752.56;;;15.62;54.55
64551;BME280;50945;44.472;-123.352;2022-10-12T02:51:48;100751.91;;;15.53;55.28
64551;BME280;50945;44.472;-123.352;2022-10-12T02:54:15;100758.84;;;15.43;55.58
64551;BME280;50945;44.472;-123.352;2022-10-12T02:56:43;100751.63;;;15.35;55.48
64551;BME280;50945;44.472;-123.352;2022-10-12T02:59:11;100752.22;;;15.24;55.31
64551;BME280;50945;44.472;-123.352;2022-10-12T03:01:38;100758.13;;;15.14;55.73
64551;BME280;50945;44.472;-123.352;2022-10-12T03:04:05;100759.13;;;15.06;56.22
64551;BME280;50945;44.472;-123.352;2022-10-12T03:06:31;100753.16;;;14.96;56.50
64551;BME280;50945;44.472;-123.352;2022-10-12T03:08:58;100758.22;;;14.92;56.05
64551;BME280;50945;44.472;-123.352;2022-10-12T03:11:24;100758.19;;;14.86;55.94
64551;BME280;50945;44.472;-123.352;2022-10-12T03:13:54;100758.97;;;14.79;56.49
64551;BME280;50945;44.472;-123.352;2022-10-12T03:16:21;100767.66;;;14.76;56.19
64551;BME280;50945;44.472;-123.352;2022-10-12T03:18:48;100764.66;;;14.71;56.01
64551;BME280;50945;44.472;-123.352;2022-10-12T03:21:15;100765.25;;;14.67;56.22
64551;BME280;50945;44.472;-123.352;2022-10-12T03:23:41;100770.22;;;14.56;56.55
64551;BME280;50945;44.472;-123.352;2022-10-12T03:26:08;100771.91;;;14.51;56.67
64551;BME280;50945;44.472;-123.352;2022-10-12T03:28:35;100762.34;;;14.47;56.24
64551;BME280;50945;44.472;-123.352;2022-10-12T03:31:01;100769.28;;;14.42;57.39
64551;BME280;50945;44.472;-123.352;2022-10-12T03:33:27;100774.78;;;14.42;56.83
64551;BME280;50945;44.472;-123.352;2022-10-12T03:35:54;100773.75;;;14.43;56.59
64551;BME280;50945;44.472;-123.352;2022-10-12T03:38:20;100767.00;;;14.46;56.56
64551;BME280;50945;44.472;-123.352;2022-10-12T03:40:47;100771.63;;;14.45;56.52
64551;BME280;50945;44.472;-123.352;2022-10-12T03:43:13;100769.97;;;14.44;56.24
64551;BME280;50945;44.472;-123.352;2022-10-12T03:45:40;100781.81;;;14.45;56.64
64551;BME280;50945;44.472;-123.352;2022-10-12T03:48:06;100771.84;;;14.44;56.73
64551;BME280;50945;44.472;-123.352;2022-10-12T03:50:33;100781.16;;;14.43;56.89
64551;BME280;50945;44.472;-123.352;2022-10-12T03:53:01;100779.00;;;14.38;56.90
64551;BME280;50945;44.472;-123.352;2022-10-12T03:55:28;100781.28;;;14.35;57.28
64551;BME280;50945;44.472;-123.352;2022-10-12T03:57:54;100777.19;;;14.24;57.26
64551;BME280;50945;44.472;-123.352;2022-10-12T04:00:21;100779.22;;;14.15;57.62
64551;BME280;50945;44.472;-123.352;2022-10-12T04:02:48;100784.28;;;14.12;57.54
64551;BME280;50945;44.472;-123.352;2022-10-12T04:05:17;100785.34;;;14.11;57.64
64551;BME280;50945;44.472;-123.352;2022-10-12T04:07:43;100783.44;;;14.11;57.98
64551;BME280;50945;44.472;-123.352;2022-10-12T04:10:10;100787.03;;;14.12;58.05
64551;BME280;50945;44.472;-123.352;2022-10-12T04:12:36;100787.66;;;14.14;57.76
64551;BME280;50945;44.472;-123.352;2022-10-12T04:15:02;100791.47;;;14.13;58.41
64551;BME280;50945;44.472;-123.352;2022-10-12T04:17:29;100799.28;;;14.09;57.74
64551;BME280;50945;44.472;-123.352;2022-10-12T04:19:55;100795.63;;;14.02;59.59
64551;BME280;50945;44.472;-123.352;2022-10-12T04:22:22;100804.44;;;13.97;57.87
64551;BME280;50945;44.472;-123.352;2022-10-12T04:24:52;100806.53;;;13.95;58.27
64551;BME280;50945;44.472;-123.352;2022-10-12T04:27:18;100798.22;;;13.88;58.25
64551;BME280;50945;44.472;-123.352;2022-10-12T04:29:45;100802.78;;;13.81;58.57
64551;BME280;50945;44.472;-123.352;2022-10-12T04:32:13;100805.28;;;13.76;58.68
64551;BME280;50945;44.472;-123.352;2022-10-12T04:34:40;100806.91;;;13.71;58.56
64551;BME280;50945;44.472;-123.352;2022-10-12T04:37:06;100812.97;;;13.66;58.63
64551;BME280;50945;44.472;-123.352;2022-10-12T04:39:33;100812.13;;;13.65;58.87
64551;BME280;50945;44.472;-123.352;2022-10-12T04:41:59;100805.19;;;13.69;58.56
64551;BME280;50945;44.472;-123.352;2022-10-12T04:44:27;100812.88;;;13.74;58.52
64551;BME280;50945;44.472;-123.352;2022-10-12T04:46:53;100805.72;;;13.80;58.00
64551;BME280;50945;44.472;-123.352;2022-10-12T04:49:19;100799.66;;;13.84;57.85
64551;BME280;50945;44.472;-123.352;2022-10-12T04:51:46;100803.06;;;13.86;58.21
64551;BME280;50945;44.472;-123.352;2022-10-12T04:54:12;100805.63;;;13.88;57.96
64551;BME280;50945;44.472;-123.352;2022-10-12T04:56:39;100806.00;;;13.85;58.15
64551;BME280;50945;44.472;-123.352;2022-10-12T04:59:05;100807.63;;;13.79;58.24
64551;BME280;50945;44.472;-123.352;2022-10-12T05:01:32;100805.47;;;13.75;58.58
64551;BME280;50945;44.472;-123.352;2022-10-12T05:03:58;100802.06;;;13.73;58.73
64551;BME280;50945;44.472;-123.352;2022-10-12T05:06:25;100801.41;;;13.71;58.62
64551;BME280;50945;44.472;-123.352;2022-10-12T05:08:51;100815.53;;;13.67;60.18
64551;BME280;50945;44.472;-123.352;2022-10-12T05:11:17;100814.88;;;13.65;59.88
64551;BME280;50945;44.472;-123.352;2022-10-12T05:13:43;100827.16;;;13.69;58.76
64551;BME280;50945;44.472;-123.352;2022-10-12T05:16:10;100822.34;;;13.72;58.74
64551;BME280;50945;44.472;-123.352;2022-10-12T05:18:36;100830.38;;;13.73;58.76
64551;BME280;50945;44.472;-123.352;2022-10-12T05:21:03;100831.25;;;13.74;58.89
64551;BME280;50945;44.472;-123.352;2022-10-12T05:23:29;100825.94;;;13.72;58.84
64551;BME280;50945;44.472;-123.352;2022-10-12T05:25:55;100834.19;;;13.72;59.19
64551;BME280;50945;44.472;-123.352;2022-10-12T05:28:22;100843.09;;;13.74;58.75
64551;BME280;50945;44.472;-123.352;2022-10-12T05:30:51;100841.00;;;13.76;58.89
64551;BME280;50945;44.472;-123.352;2022-10-12T05:33:18;100832.94;;;13.75;58.85
64551;BME280;50945;44.472;-123.352;2022-10-12T05:35:46;100840.53;;;13.73;58.97
64551;BME280;50945;44.472;-123.352;2022-10-12T05:38:13;100844.91;;;13.67;58.89
64551;BME280;50945;44.472;-123.352;2022-10-12T05:40:39;100843.59;;;13.63;59.13
64551;BME280;50945;44.472;-123.352;2022-10-12T05:43:05;100836.56;;;13.60;59.28
64551;BME280;50945;44.472;-123.352;2022-10-12T05:45:32;100839.69;;;13.57;59.37
64551;BME280;50945;44.472;-123.352;2022-10-12T05:47:58;100848.34;;;13.54;59.16
64551;BME280;50945;44.472;-123.352;2022-10-12T05:50:25;100838.91;;;13.42;59.66
64551;BME280;50945;44.472;-123.352;2022-10-12T05:52:51;100846.25;;;13.26;60.27
64551;BME280;50945;44.472;-123.352;2022-10-12T05:55:18;100846.94;;;13.13;60.45
64551;BME280;50945;44.472;-123.352;2022-10-12T05:57:44;100845.34;;;13.04;60.35
64551;BME280;50945;44.472;-123.352;2022-10-12T06:00:11;100845.03;;;12.99;60.58
64551;BME280;50945;44.472;-123.352;2022-10-12T06:02:37;100842.31;;;12.99;62.42
64551;BME280;50945;44.472;-123.352;2022-10-12T06:05:03;100844.69;;;13.02;60.41
64551;BME280;50945;44.472;-123.352;2022-10-12T06:07:29;100836.91;;;13.06;61.71
64551;BME280;50945;44.472;-123.352;2022-10-12T06:09:56;100846.09;;;13.13;59.96
64551;BME280;50945;44.472;-123.352;2022-10-12T06:12:22;100852.91;;;13.17;59.92
64551;BME280;50945;44.472;-123.352;2022-10-12T06:14:49;100853.75;;;13.18;60.05
64551;BME280;50945;44.472;-123.352;2022-10-12T06:17:15;100853.75;;;13.18;60.20
64551;BME280;50945;44.472;-123.352;2022-10-12T06:19:41;100868.34;;;13.18;60.08
64551;BME280;50945;44.472;-123.352;2022-10-12T06:22:08;100860.28;;;13.17;60.15
64551;BME280;50945;44.472;-123.352;2022-10-12T06:24:34;100856.66;;;13.16;60.13
64551;BME280;50945;44.472;-123.352;2022-10-12T06:27:00;100858.56;;;13.16;60.28
64551;BME280;50945;44.472;-123.352;2022-10-12T06:29:27;100848.44;;;13.16;60.39
64551;BME280;50945;44.472;-123.352;2022-10-12T06:31:53;100859.22;;;13.18;60.16
64551;BME280;50945;44.472;-123.352;2022-10-12T06:34:19;100858.66;;;13.22;60.24
64551;BME280;50945;44.472;-123.352;2022-10-12T06:36:47;100860.34;;;13.23;60.36
64551;BME280;50945;44.472;-123.352;2022-10-12T06:39:14;100862.72;;;13.26;60.31
64551;BME280;50945;44.472;-123.352;2022-10-12T06:41:40;100861.03;;;13.25;60.48
64551;BME280;50945;44.472;-123.352;2022-10-12T06:44:07;100864.25;;;13.29;60.21
64551;BME280;50945;44.472;-123.352;2022-10-12T06:46:33;100866.53;;;13.25;62.17
64551;BME280;50945;44.472;-123.352;2022-10-12T06:48:59;100867.66;;;13.16;60.57
64551;BME280;50945;44.472;-123.352;2022-10-12T06:51:26;100866.88;;;13.07;60.62
64551;BME280;50945;44.472;-123.352;2022-10-12T06:53:55;100863.78;;;12.96;61.03
64551;BME280;50945;44.472;-123.352;2022-10-12T06:56:21;100867.66;;;12.86;61.05
64551;BME280;50945;44.472;-123.352;2022-10-12T06:58:55;100866.69;;;12.79;61.30
64551;BME280;50945;44.472;-123.352;2022-10-12T07:01:21;100876.81;;;12.79;61.50
64551;BME280;50945;44.472;-123.352;2022-10-12T07:03:48;100860.16;;;12.80;61.26
64551;BME280;50945;44.472;-123.352;2022-10-12T07:06:14;100869.03;;;12.82;61.34
64551;BME280;50945;44.472;-123.352;2022-10-12T07:08:42;100861.88;;;12.81;61.66
64551;BME280;50945;44.472;-123.352;2022-10-12T07:11:10;100867.72;;;12.78;61.88
64551;BME280;50945;44.472;-123.352;2022-10-12T07:13:37;100861.94;;;12.73;61.94
64551;BME280;50945;44.472;-123.352;2022-10-12T07:16:04;100862.50;;;12.68;62.23
64551;BME280;50945;44.472;-123.352;2022-10-12T07:18:30;100859.66;;;12.62;62.23
64551;BME280;50945;44.472;-123.352;2022-10-12T07:20:57;100863.63;;;12.59;62.49
64551;BME280;50945;44.472;-123.352;2022-10-12T07:23:25;100869.69;;;12.54;62.49
64551;BME280;50945;44.472;-123.352;2022-10-12T07:25:52;100868.53;;;12.49;62.82
64551;BME280;50945;44.472;-123.352;2022-10-12T07:28:20;100866.88;;;12.40;62.81
64551;BME280;50945;44.472;-123.352;2022-10-12T07:30:47;100873.47;;;12.30;63.34
64551;BME280;50945;44.472;-123.352;2022-10-12T07:33:13;100868.91;;;12.23;63.43
64551;BME280;50945;44.472;-123.352;2022-10-12T07:35:40;100869.09;;;12.21;63.43
64551;BME280;50945;44.472;-123.352;2022-10-12T07:38:06;100880.22;;;12.20;63.40
64551;BME280;50945;44.472;-123.352;2022-10-12T07:40:33;100872.69;;;12.22;63.29
64551;BME280;50945;44.472;-123.352;2022-10-12T07:42:59;100874.56;;;12.21;63.40
64551;BME280;50945;44.472;-123.352;2022-10-12T07:45:26;100872.84;;;12.20;63.53
64551;BME280;50945;44.472;-123.352;2022-10-12T07:47:54;100878.50;;;12.18;63.76
64551;BME280;50945;44.472;-123.352;2022-10-12T07:50:21;100870.09;;;12.20;63.67
64551;BME280;50945;44.472;-123.352;2022-10-12T07:52:47;100870.09;;;12.20;64.10
64551;BME280;50945;44.472;-123.352;2022-10-12T07:55:13;100865.13;;;12.24;63.83
64551;BME280;50945;44.472;-123.352;2022-10-12T07:57:40;100874.88;;;12.26;64.07
64551;BME280;50945;44.472;-123.352;2022-10-12T08:00:06;100870.59;;;12.24;64.02
64551;BME280;50945;44.472;-123.352;2022-10-12T08:02:33;100875.97;;;12.17;63.98
64551;BME280;50945;44.472;-123.352;2022-10-12T08:05:00;100869.53;;;12.10;64.28
64551;BME280;50945;44.472;-123.352;2022-10-12T08:07:26;100871.97;;;12.05;64.57
64551;BME280;50945;44.472;-123.352;2022-10-12T08:09:53;100877.84;;;11.93;64.84
64551;BME280;50945;44.472;-123.352;2022-10-12T08:12:19;100879.94;;;11.83;65.06
64551;BME280;50945;44.472;-123.352;2022-10-12T08:14:45;100881.50;;;11.77;65.25
64551;BME280;50945;44.472;-123.352;2022-10-12T08:17:12;100883.06;;;11.72;65.86
64551;BME280;50945;44.472;-123.352;2022-10-12T08:19:38;100882.56;;;11.68;65.73
64551;BME280;50945;44.472;-123.352;2022-10-12T08:22:04;100882.75;;;11.67;65.51
64551;BME280;50945;44.472;-123.352;2022-10-12T08:24:31;100881.72;;;11.68;65.47
64551;BME280;50945;44.472;-123.352;2022-10-12T08:26:57;100887.22;;;11.68;65.78
64551;BME280;50945;44.472;-123.352;2022-10-12T08:29:23;100890.25;;;11.73;65.91
64551;BME280;50945;44.472;-123.352;2022-10-12T08:31:50;100880.28;;;11.80;65.35
64551;BME280;50945;44.472;-123.352;2022-10-12T08:34:16;100886.09;;;11.85;65.23
64551;BME280;50945;44.472;-123.352;2022-10-12T08:36:42;100882.78;;;11.90;65.39
64551;BME280;50945;44.472;-123.352;2022-10-12T08:39:09;100878.88;;;11.92;65.62
64551;BME280;50945;44.472;-123.352;2022-10-12T08:42:04;100878.31;;;11.97;66.08
64551;BME280;50945;44.472;-123.352;2022-10-12T08:47:44;100878.94;;;12.07;67.04
64551;BME280;50945;44.472;-123.352;2022-10-12T08:50:28;100878.47;;;12.04;65.88
64551;BME280;50945;44.472;-123.352;2022-10-12T08:53:01;100874.56;;;11.90;65.55
64551;BME280;50945;44.472;-123.352;2022-10-12T08:55:42;100873.09;;;11.79;66.43
64551;BME280;50945;44.472;-123.352;2022-10-12T08:58:18;100876.91;;;11.70;66.72
64551;BME280;50945;44.472;-123.352;2022-10-12T09:00:51;100882.44;;;11.61;66.14
64551;BME280;50945;44.472;-123.352;2022-10-12T09:06:18;100875.28;;;11.52;66.93
64551;BME280;50945;44.472;-123.352;2022-10-12T09:14:30;100869.16;;;11.50;67.37
64551;BME280;50945;44.472;-123.352;2022-10-12T09:16:59;100869.16;;;11.50;67.41
64551;BME280;50945;44.472;-123.352;2022-10-12T09:19:37;100869.66;;;11.54;67.59
64551;BME280;50945;44.472;-123.352;2022-10-12T09:22:16;100866.06;;;11.53;67.63
64551;BME280;50945;44.472;-123.352;2022-10-12T09:24:44;100867.06;;;11.52;67.54
64551;BME280;50945;44.472;-123.352;2022-10-12T09:27:18;100860.94;;;11.50;67.74
64551;BME280;50945;44.472;-123.352;2022-10-12T09:29:47;100861.09;;;11.49;67.63
64551;BME280;50945;44.472;-123.352;2022-10-12T09:35:22;100863.94;;;11.32;67.96
64551;BME280;50945;44.472;-123.352;2022-10-12T09:37:51;100869.97;;;11.19;67.54
64551;BME280;50945;44.472;-123.352;2022-10-12T09:40:38;100867.09;;;11.04;69.99
64551;BME280;50945;44.472;-123.352;2022-10-12T09:43:06;100870.88;;;10.95;69.07
64551;BME280;50945;44.472;-123.352;2022-10-12T09:45:34;100871.59;;;10.89;68.82
64551;BME280;50945;44.472;-123.352;2022-10-12T09:48:22;100859.28;;;10.85;70.85
64551;BME280;50945;44.472;-123.352;2022-10-12T09:50:58;100857.25;;;10.79;70.03
64551;BME280;50945;44.472;-123.352;2022-10-12T09:53:31;100855.19;;;10.73;69.43
64551;BME280;50945;44.472;-123.352;2022-10-12T09:58:42;100855.91;;;10.75;69.57
64551;BME280;50945;44.472;-123.352;2022-10-12T10:01:16;100857.41;;;10.77;69.88
64551;BME280;50945;44.472;-123.352;2022-10-12T10:03:45;100847.31;;;10.78;69.35
64551;BME280;50945;44.472;-123.352;2022-10-12T10:06:12;100849.72;;;10.81;69.71
64551;BME280;50945;44.472;-123.352;2022-10-12T10:08:44;100846.81;;;10.82;69.72
64551;BME280;50945;44.472;-123.352;2022-10-12T10:11:27;100853.31;;;10.81;69.40
64551;BME280;50945;44.472;-123.352;2022-10-12T10:13:58;100860.00;;;10.79;69.63
64551;BME280;50945;44.472;-123.352;2022-10-12T10:16:27;100859.47;;;10.75;69.15
64551;BME280;50945;44.472;-123.352;2022-10-12T10:18:56;100847.69;;;10.67;69.41
64551;BME280;50945;44.472;-123.352;2022-10-12T10:21:41;100856.94;;;10.57;70.80
64551;BME280;50945;44.472;-123.352;2022-10-12T10:29:35;100853.19;;;10.50;70.54
64551;BME280;50945;44.472;-123.352;2022-10-12T10:32:19;100857.44;;;10.53;71.27
64551;BME280;50945;44.472;-123.352;2022-10-12T10:35:05;100839.53;;;10.50;70.98
64551;BME280;50945;44.472;-123.352;2022-10-12T10:37:32;100852.31;;;10.50;70.19
64551;BME280;50945;44.472;-123.352;2022-10-12T10:39:58;100856.25;;;10.47;75.34
64551;BME280;50945;44.472;-123.352;2022-10-12T10:42:25;100857.81;;;10.41;75.87
64551;BME280;50945;44.472;-123.352;2022-10-12T10:45:23;100852.19;;;10.43;72.00
64551;BME280;50945;44.472;-123.352;2022-10-12T10:47:50;100854.91;;;10.43;70.50
64551;BME280;50945;44.472;-123.352;2022-10-12T10:53:02;100849.28;;;10.36;70.58
64551;BME280;50945;44.472;-123.352;2022-10-12T10:56:02;100861.56;;;10.32;72.95
64551;BME280;50945;44.472;-123.352;2022-10-12T10:58:37;100857.25;;;10.30;71.32
64551;BME280;50945;44.472;-123.352;2022-10-12T11:01:14;100872.13;;;10.27;71.02
64551;BME280;50945;44.472;-123.352;2022-10-12T11:03:51;100870.06;;;10.21;70.85
64551;BME280;50945;44.472;-123.352;2022-10-12T11:06:41;100865.97;;;10.17;71.37
64551;BME280;50945;44.472;-123.352;2022-10-12T11:09:16;100858.28;;;10.12;71.69
64551;BME280;50945;44.472;-123.352;2022-10-12T11:11:50;100862.53;;;10.06;71.21
64551;BME280;50945;44.472;-123.352;2022-10-12T11:14:34;100863.22;;;10.00;71.43
64551;BME280;50945;44.472;-123.352;2022-10-12T11:17:09;100866.13;;;9.99;71.56
64551;BME280;50945;44.472;-123.352;2022-10-12T11:22:53;100867.47;;;9.95;73.12
64551;BME280;50945;44.472;-123.352;2022-10-12T11:25:38;100868.84;;;9.90;72.44
64551;BME280;50945;44.472;-123.352;2022-10-12T11:28:09;100872.59;;;9.89;71.48
64551;BME280;50945;44.472;-123.352;2022-10-12T11:30:46;100880.78;;;9.89;71.44
64551;BME280;50945;44.472;-123.352;2022-10-12T11:33:29;100879.91;;;9.89;72.89
64551;BME280;50945;44.472;-123.352;2022-10-12T11:36:00;100883.53;;;9.89;72.24
64551;BME280;50945;44.472;-123.352;2022-10-12T11:38:51;100879.59;;;9.92;72.84
64551;BME280;50945;44.472;-123.352;2022-10-12T11:41:28;100882.50;;;9.90;72.39
64551;BME280;50945;44.472;-123.352;2022-10-12T11:44:21;100886.94;;;9.92;74.28
64551;BME280;50945;44.472;-123.352;2022-10-12T11:47:00;100892.41;;;9.92;71.98
64551;BME280;50945;44.472;-123.352;2022-10-12T11:49:31;100890.69;;;9.90;72.31
64551;BME280;50945;44.472;-123.352;2022-10-12T11:52:04;100882.81;;;9.87;72.12
64551;BME280;50945;44.472;-123.352;2022-10-12T11:57:15;100886.72;;;9.77;72.78
64551;BME280;50945;44.472;-123.352;2022-10-12T11:59:57;100881.09;;;9.70;72.57
64551;BME280;50945;44.472;-123.352;2022-10-12T12:02:39;100890.44;;;9.67;72.41
64551;BME280;50945;44.472;-123.352;2022-10-12T12:05:10;100889.25;;;9.62;72.79
64551;BME280;50945;44.472;-123.352;2022-10-12T12:07:47;100885.31;;;9.56;72.09
64551;BME280;50945;44.472;-123.352;2022-10-12T12:18:16;100887.41;;;9.70;72.23
64551;BME280;50945;44.472;-123.352;2022-10-12T12:23:24;100887.78;;;9.92;72.59
64551;BME280;50945;44.472;-123.352;2022-10-12T12:28:46;100889.50;;;10.01;72.24
64551;BME280;50945;44.472;-123.352;2022-10-12T12:33:48;100902.13;;;9.94;72.16
64551;BME280;50945;44.472;-123.352;2022-10-12T12:36:38;100902.66;;;9.89;73.82
64551;BME280;50945;44.472;-123.352;2022-10-12T12:39:07;100897.34;;;9.88;72.72
64551;BME280;50945;44.472;-123.352;2022-10-12T12:49:37;100895.16;;;10.08;72.74
64551;BME280;50945;44.472;-123.352;2022-10-12T12:52:33;100915.81;;;10.11;73.86
64551;BME280;50945;44.472;-123.352;2022-10-12T12:58:15;100908.31;;;10.13;73.58
64551;BME280;50945;44.472;-123.352;2022-10-12T13:19:54;100930.28;;;9.86;73.37
64551;BME280;50945;44.472;-123.352;2022-10-12T13:22:31;100928.91;;;9.90;74.16
64551;BME280;50945;44.472;-123.352;2022-10-12T13:25:07;100933.88;;;9.95;74.34
64551;BME280;50945;44.472;-123.352;2022-10-12T13:27:42;100933.38;;;10.00;73.87
64551;BME280;50945;44.472;-123.352;2022-10-12T13:41:07;100932.38;;;10.09;74.68
64551;BME280;50945;44.472;-123.352;2022-10-12T13:43:57;100931.00;;;10.05;75.19
64551;BME280;50945;44.472;-123.352;2022-10-12T13:46:44;100935.25;;;9.99;74.80
64551;BME280;50945;44.472;-123.352;2022-10-12T13:49:25;100933.00;;;9.95;74.48
64551;BME280;50945;44.472;-123.352;2022-10-12T13:51:54;100943.25;;;9.93;74.52
64551;BME280;50945;44.472;-123.352;2022-10-12T13:54:26;100935.22;;;9.83;73.93
64551;BME280;50945;44.472;-123.352;2022-10-12T13:57:02;100930.22;;;9.70;75.01
64551;BME280;50945;44.472;-123.352;2022-10-12T13:59:36;100934.44;;;9.64;75.13
64551;BME280;50945;44.472;-123.352;2022-10-12T14:02:03;100939.38;;;9.61;78.84
64551;BME280;50945;44.472;-123.352;2022-10-12T14:04:42;100933.41;;;9.57;75.56
64551;BME280;50945;44.472;-123.352;2022-10-12T14:07:16;100936.63;;;9.52;79.65
64551;BME280;50945;44.472;-123.352;2022-10-12T14:09:46;100939.00;;;9.47;75.01
64551;BME280;50945;44.472;-123.352;2022-10-12T14:12:14;100933.66;;;9.38;74.69
64551;BME280;50945;44.472;-123.352;2022-10-12T14:14:44;100937.88;;;9.24;74.63
64551;BME280;50945;44.472;-123.352;2022-10-12T14:17:15;100934.16;;;9.07;74.38
64551;BME280;50945;44.472;-123.352;2022-10-12T14:19:44;100926.91;;;8.89;74.67
64551;BME280;50945;44.472;-123.352;2022-10-12T14:22:45;100933.09;;;8.73;74.80
64551;BME280;50945;44.472;-123.352;2022-10-12T14:25:14;100932.81;;;8.59;75.74
64551;BME280;50945;44.472;-123.352;2022-10-12T14:27:41;100930.16;;;8.49;75.76
64551;BME280;50945;44.472;-123.352;2022-10-12T14:30:23;100922.47;;;8.44;76.03
64551;BME280;50945;44.472;-123.352;2022-10-12T14:32:53;100929.03;;;8.42;76.04
64551;BME280;50945;44.472;-123.352;2022-10-12T14:35:24;100929.94;;;8.42;76.12
64551;BME280;50945;44.472;-123.352;2022-10-12T14:37:51;100939.94;;;8.42;76.29
64551;BME280;50945;44.472;-123.352;2022-10-12T14:43:19;100923.75;;;8.40;76.51